createdAt,value
2023-05-18T00:00:28.155Z,1.2
2023-05-18T00:01:35.806Z,1.3
2023-05-18T00:02:44.602Z,2
2023-05-18T00:03:53.265Z,1.4
2023-05-18T00:05:02.849Z,5.4
2023-05-18T00:06:10.555Z,1.9
2023-05-18T00:07:19.144Z,1.6
2023-05-18T00:08:28.813Z,13.5
2023-05-18T00:09:36.497Z,3.3
2023-05-18T00:10:46.136Z,1.6
2023-05-18T00:11:54.887Z,2.3
2023-05-18T00:13:04.531Z,3
2023-05-18T00:14:14.182Z,4.1
2023-05-18T00:15:23.902Z,5.1
2023-05-18T00:16:32.633Z,4.3
2023-05-18T00:17:42.361Z,3.9
2023-05-18T00:18:51.983Z,4.2
2023-05-18T00:20:01.619Z,3.7
2023-05-18T00:21:10.285Z,3.2
2023-05-18T00:22:19.941Z,2.1
2023-05-18T00:23:28.577Z,1.9
2023-05-18T00:24:38.316Z,1.7
2023-05-18T00:25:47.949Z,1.8
2023-05-18T00:26:55.620Z,2
2023-05-18T00:28:05.264Z,2.2
2023-05-18T00:29:14.923Z,2.5
2023-05-18T00:30:22.583Z,2.3
2023-05-18T00:31:32.336Z,2.3
2023-05-18T00:32:41.988Z,1.8
2023-05-18T00:33:51.375Z,2
2023-05-18T00:35:01.036Z,2.1
2023-05-18T00:36:10.698Z,2.1
2023-05-18T00:37:19.367Z,2.6
2023-05-18T00:38:29.015Z,1.9
2023-05-18T00:39:36.756Z,2
2023-05-18T00:40:46.448Z,1.6
2023-05-18T00:41:56.095Z,1.8
2023-05-18T00:43:04.764Z,1.8
2023-05-18T00:44:14.486Z,1.8
2023-05-18T00:45:23.173Z,1.9
2023-05-18T00:46:31.941Z,1.7
2023-05-18T00:47:41.511Z,1.9
2023-05-18T00:48:49.187Z,1.7
2023-05-18T00:49:58.836Z,1.9
2023-05-18T00:51:06.519Z,2.3
2023-05-18T00:52:16.156Z,2.1
2023-05-18T00:53:25.807Z,1.7
2023-05-18T00:54:33.479Z,2.5
2023-05-18T00:55:43.146Z,2.3
2023-05-18T00:56:52.813Z,3.4
2023-05-18T00:58:00.415Z,4.6
2023-05-18T00:59:10.090Z,6
2023-05-18T01:00:18.722Z,5.8
2023-05-18T01:01:27.386Z,4.2
2023-05-18T01:02:37.063Z,3.1
2023-05-18T01:03:44.693Z,3.6
2023-05-18T01:04:53.368Z,4
2023-05-18T01:06:03.028Z,3.6
2023-05-18T01:07:12.668Z,4
2023-05-18T01:08:22.336Z,4
2023-05-18T01:09:32.040Z,3.2
2023-05-18T01:10:41.687Z,3
2023-05-18T01:11:51.364Z,2.6
2023-05-18T01:13:00.087Z,2.8
2023-05-18T01:14:09.695Z,2.4
2023-05-18T01:15:19.423Z,1.7
2023-05-18T01:16:27.079Z,1.7
2023-05-18T01:17:36.743Z,1.9
2023-05-18T01:18:45.368Z,1.9
2023-05-18T01:19:53.986Z,2.1
2023-05-18T01:21:03.642Z,1.9
2023-05-18T01:22:13.331Z,1.8
2023-05-18T01:23:21.968Z,1.7
2023-05-18T01:24:31.611Z,1.8
2023-05-18T01:25:38.251Z,1.8
2023-05-18T01:26:47.928Z,2
2023-05-18T01:27:56.563Z,1.7
2023-05-18T01:29:05.255Z,1.9
2023-05-18T01:30:14.868Z,1.5
2023-05-18T01:31:24.598Z,1.7
2023-05-18T01:32:33.197Z,2.3
2023-05-18T01:33:42.856Z,8.1
2023-05-18T01:34:50.520Z,5.1
2023-05-18T01:36:00.182Z,3.6
2023-05-18T01:37:09.817Z,3.8
2023-05-18T01:38:19.468Z,3.7
2023-05-18T01:39:29.126Z,3.9
2023-05-18T01:40:36.840Z,9.7
2023-05-18T01:41:45.488Z,3.9
2023-05-18T01:42:55.213Z,3.9
2023-05-18T01:44:03.866Z,3.5
2023-05-18T01:45:13.604Z,4
2023-05-18T01:46:22.308Z,4.1
2023-05-18T01:47:29.890Z,3.8
2023-05-18T01:48:39.537Z,3.5
2023-05-18T01:49:48.217Z,3.1
2023-05-18T01:50:56.866Z,2.5
2023-05-18T01:52:06.524Z,2.6
2023-05-18T01:53:15.182Z,2.6
2023-05-18T01:54:24.879Z,2.1
2023-05-18T01:55:33.581Z,2.5
2023-05-18T01:56:42.253Z,3.1
2023-05-18T01:57:51.917Z,3.8
2023-05-18T01:59:01.556Z,6.9
2023-05-18T02:00:09.223Z,8.4
2023-05-18T02:01:18.956Z,3.9
2023-05-18T02:02:27.591Z,3.7
2023-05-18T02:03:37.244Z,5.1
2023-05-18T02:04:44.846Z,7.3
2023-05-18T02:05:53.501Z,5.4
2023-05-18T02:07:03.147Z,3.6
2023-05-18T02:08:12.833Z,2.7
2023-05-18T02:09:23.562Z,3.6
2023-05-18T02:10:32.265Z,8.7
2023-05-18T02:11:40.900Z,3.6
2023-05-18T02:12:50.591Z,12.9
2023-05-18T02:13:59.255Z,2
2023-05-18T02:15:06.943Z,2.1
2023-05-18T02:16:16.606Z,2.5
2023-05-18T02:17:25.286Z,2.3
2023-05-18T02:18:34.951Z,2.2
2023-05-18T02:19:42.547Z,2
2023-05-18T02:20:52.254Z,2.1
2023-05-18T02:22:01.920Z,1.9
2023-05-18T02:23:10.587Z,2
2023-05-18T02:24:20.264Z,2
2023-05-18T02:25:29.048Z,2
2023-05-18T02:26:37.743Z,2.1
2023-05-18T02:27:47.402Z,2.1
2023-05-18T02:28:55.038Z,2.3
2023-05-18T02:30:03.672Z,2.3
2023-05-18T02:31:13.319Z,2.5
2023-05-18T02:32:21.989Z,2.4
2023-05-18T02:33:31.657Z,2.6
2023-05-18T02:34:40.270Z,2.9
2023-05-18T02:35:49.950Z,2.8
2023-05-18T02:36:59.719Z,2.8
2023-05-18T02:38:09.375Z,2.9
2023-05-18T02:39:19.020Z,3.5
2023-05-18T02:40:28.652Z,3.6
2023-05-18T02:41:36.382Z,3.2
2023-05-18T02:42:46.058Z,3.6
2023-05-18T02:43:55.709Z,7.9
2023-05-18T02:45:04.416Z,5.9
2023-05-18T02:46:14.094Z,2.1
2023-05-18T02:47:21.701Z,1.7
2023-05-18T02:48:31.351Z,1.9
2023-05-18T02:49:41.082Z,1.7
2023-05-18T02:50:49.754Z,1.6
2023-05-18T02:51:59.400Z,2
2023-05-18T02:53:08.061Z,2.1
2023-05-18T02:54:15.711Z,1.7
2023-05-18T02:55:26.487Z,2.4
2023-05-18T02:56:35.122Z,1.9
2023-05-18T02:57:44.839Z,2.2
2023-05-18T02:58:54.473Z,2.2
2023-05-18T03:00:02.184Z,2
2023-05-18T03:01:11.916Z,1.9
2023-05-18T03:02:21.566Z,2.1
2023-05-18T03:03:31.190Z,2
2023-05-18T03:04:40.839Z,2.2
2023-05-18T03:05:49.575Z,1.9
2023-05-18T03:06:59.196Z,2.2
2023-05-18T03:08:08.908Z,2.1
2023-05-18T03:09:16.565Z,2
2023-05-18T03:10:26.549Z,1.9
2023-05-18T03:11:35.233Z,1.9
2023-05-18T03:12:42.910Z,2.1
2023-05-18T03:13:52.574Z,1.9
2023-05-18T03:15:01.222Z,2.2
2023-05-18T03:16:10.962Z,2.4
2023-05-18T03:17:20.578Z,2.6
2023-05-18T03:18:28.237Z,2
2023-05-18T03:19:38.945Z,2.3
2023-05-18T03:20:48.587Z,2.1
2023-05-18T03:21:58.264Z,2
2023-05-18T03:23:07.908Z,2.2
2023-05-18T03:24:16.590Z,2.1
2023-05-18T03:25:25.220Z,3.4
2023-05-18T03:26:34.858Z,3.1
2023-05-18T03:27:42.513Z,3
2023-05-18T03:28:52.223Z,2.7
2023-05-18T03:30:01.926Z,2.1
2023-05-18T03:31:11.596Z,2.7
2023-05-18T03:32:21.250Z,1.4
2023-05-18T03:33:28.918Z,1.5
2023-05-18T03:34:37.577Z,1.9
2023-05-18T03:35:48.650Z,2.1
2023-05-18T03:36:55.917Z,1.3
2023-05-18T03:38:05.654Z,1.5
2023-05-18T03:39:15.266Z,1.5
2023-05-18T03:40:22.913Z,1.9
2023-05-18T03:41:32.575Z,1.6
2023-05-18T03:42:42.255Z,1.6
2023-05-18T03:43:50.974Z,1.7
2023-05-18T03:45:00.554Z,1.9
2023-05-18T03:46:08.223Z,1.7
2023-05-18T03:47:17.992Z,1.6
2023-05-18T03:48:27.697Z,1.5
2023-05-18T03:49:36.392Z,5.2
2023-05-18T03:50:46.074Z,1.9
2023-05-18T03:51:54.797Z,4.6
2023-05-18T03:53:03.461Z,3
2023-05-18T03:54:13.145Z,2.6
2023-05-18T03:55:20.767Z,2.7
2023-05-18T03:56:30.518Z,2.5
2023-05-18T03:57:40.236Z,2.5
2023-05-18T03:58:47.929Z,2.6
2023-05-18T03:59:57.585Z,2.6
2023-05-18T04:01:07.277Z,3
2023-05-18T04:02:16.002Z,3.1
2023-05-18T04:03:25.669Z,3.1
2023-05-18T04:04:33.301Z,2.9
2023-05-18T04:05:42.970Z,2.3
2023-05-18T04:06:52.618Z,2.6
2023-05-18T04:08:00.253Z,3
2023-05-18T04:09:08.942Z,2.3
2023-05-18T04:10:18.661Z,2.7
2023-05-18T04:11:28.318Z,2.5
2023-05-18T04:12:37.928Z,2.4
2023-05-18T04:13:47.615Z,2
2023-05-18T04:14:57.266Z,2.2
2023-05-18T04:16:06.088Z,1.5
2023-05-18T04:17:15.610Z,1.5
2023-05-18T04:18:24.272Z,1.3
2023-05-18T04:19:33.060Z,1.5
2023-05-18T04:20:42.621Z,1.2
2023-05-18T04:21:51.299Z,1.2
2023-05-18T04:23:00.935Z,1.8
2023-05-18T04:24:10.642Z,1.8
2023-05-18T04:25:19.355Z,1.9
2023-05-18T04:26:29.022Z,1.6
2023-05-18T04:27:38.666Z,2.3
2023-05-18T04:28:46.300Z,1.7
2023-05-18T04:29:55.995Z,2.1
2023-05-18T04:31:04.674Z,2.2
2023-05-18T04:32:14.389Z,2
2023-05-18T04:33:23.972Z,2.4
2023-05-18T04:34:31.648Z,2.3
2023-05-18T04:35:41.303Z,2
2023-05-18T04:36:50.976Z,2
2023-05-18T04:37:58.617Z,1.6
2023-05-18T04:39:08.369Z,1.5
2023-05-18T04:40:16.015Z,1.8
2023-05-18T04:41:24.670Z,1.9
2023-05-18T04:42:34.360Z,1.4
2023-05-18T04:43:41.991Z,1.7
2023-05-18T04:44:51.667Z,1.8
2023-05-18T04:46:01.337Z,1.9
2023-05-18T04:47:10.016Z,1.2
2023-05-18T04:48:19.711Z,1.6
2023-05-18T04:49:27.341Z,1.9
2023-05-18T04:50:36.003Z,4.4
2023-05-18T04:51:45.624Z,1.6
2023-05-18T04:52:54.315Z,1.6
2023-05-18T04:54:02.950Z,1.2
2023-05-18T04:55:11.581Z,1.6
2023-05-18T04:56:21.246Z,1.2
2023-05-18T04:57:30.931Z,1.2
2023-05-18T04:58:39.605Z,1.1
2023-05-18T04:59:49.237Z,1.3
2023-05-18T05:00:58.933Z,1.3
2023-05-18T05:02:07.631Z,1.6
2023-05-18T05:03:17.363Z,2
2023-05-18T05:04:25.931Z,1.2
2023-05-18T05:05:33.627Z,1.2
2023-05-18T05:06:43.250Z,1.7
2023-05-18T05:07:51.913Z,1.6
2023-05-18T05:09:01.596Z,1.3
2023-05-18T05:10:11.219Z,1.5
2023-05-18T05:11:20.118Z,1.1
2023-05-18T05:12:29.848Z,1.3
2023-05-18T05:13:39.496Z,1.4
2023-05-18T05:14:49.232Z,0.9
2023-05-18T05:15:58.969Z,1.3
2023-05-18T05:17:07.655Z,1.4
2023-05-18T05:18:16.303Z,1.8
2023-05-18T05:19:26.067Z,1.5
2023-05-18T05:20:34.658Z,1
2023-05-18T05:21:44.343Z,1
2023-05-18T05:22:53.047Z,0.9
2023-05-18T05:24:02.632Z,1.4
2023-05-18T05:25:12.288Z,1
2023-05-18T05:26:19.923Z,1.2
2023-05-18T05:27:28.570Z,1.2
2023-05-18T05:28:37.202Z,1.2
2023-05-18T05:29:44.949Z,1.1
2023-05-18T05:30:54.670Z,0.8
2023-05-18T05:32:03.640Z,1.2
2023-05-18T05:33:12.987Z,1
2023-05-18T05:34:22.616Z,1
2023-05-18T05:35:33.283Z,1.3
2023-05-18T05:36:40.914Z,1.3
2023-05-18T05:37:50.551Z,1
2023-05-18T05:38:59.210Z,1.2
2023-05-18T05:40:08.906Z,1.3
2023-05-18T05:41:17.620Z,1.2
2023-05-18T05:42:25.258Z,1.3
2023-05-18T05:43:34.931Z,1.2
2023-05-18T05:44:42.633Z,1.3
2023-05-18T05:45:51.313Z,1.4
2023-05-18T05:47:01.018Z,1.1
2023-05-18T05:48:10.490Z,1.1
2023-05-18T05:49:20.024Z,1
2023-05-18T05:50:28.721Z,1.2
2023-05-18T05:51:36.411Z,3.3
2023-05-18T05:52:46.073Z,2.1
2023-05-18T05:53:53.778Z,1.5
2023-05-18T05:55:03.448Z,1.8
2023-05-18T05:56:13.134Z,1.8
2023-05-18T05:57:22.764Z,2.1
2023-05-18T05:58:32.493Z,2
2023-05-18T05:59:41.128Z,1.9
2023-05-18T06:00:48.809Z,1.4
2023-05-18T06:01:58.598Z,1.5
2023-05-18T06:03:07.215Z,2
2023-05-18T06:04:15.864Z,2.1
2023-05-18T06:05:25.490Z,2.2
2023-05-18T06:06:34.164Z,2.7
2023-05-18T06:07:43.845Z,2.8
2023-05-18T06:08:53.507Z,2.5
2023-05-18T06:10:02.241Z,2.2
2023-05-18T06:11:11.821Z,2.5
2023-05-18T06:12:20.487Z,1.6
2023-05-18T06:13:30.134Z,1
2023-05-18T06:14:38.927Z,1.1
2023-05-18T06:15:48.596Z,1.5
2023-05-18T06:16:58.333Z,0.9
2023-05-18T06:18:06.990Z,1.3
2023-05-18T06:19:16.660Z,1
2023-05-18T06:20:25.233Z,1.3
2023-05-18T06:21:34.932Z,1.8
2023-05-18T06:22:44.588Z,1.7
2023-05-18T06:23:53.273Z,1.6
2023-05-18T06:25:01.904Z,1.8
2023-05-18T06:26:11.561Z,1.6
2023-05-18T06:27:20.224Z,12.6
2023-05-18T06:28:29.856Z,181.1
2023-05-18T06:29:39.507Z,436.5
2023-05-18T06:30:48.210Z,4.9
2023-05-18T06:31:57.897Z,1.7
2023-05-18T06:33:06.751Z,2.1
2023-05-18T06:34:15.343Z,5.5
2023-05-18T06:35:25.027Z,4
2023-05-18T06:36:32.652Z,143.6
2023-05-18T06:37:42.378Z,104.3
2023-05-18T06:38:50.937Z,3
2023-05-18T06:39:59.583Z,1.9
2023-05-18T06:41:09.257Z,1.5
2023-05-18T06:42:18.927Z,150.5
2023-05-18T06:43:27.608Z,316.39999
2023-05-18T06:44:37.274Z,201.39999
2023-05-18T06:45:45.973Z,14.3
2023-05-18T06:46:55.630Z,90.199997
2023-05-18T06:48:05.289Z,280.70001
2023-05-18T06:49:13.967Z,155.6
2023-05-18T06:50:23.808Z,84.5
2023-05-18T06:51:33.490Z,267.20001
2023-05-18T06:52:43.112Z,488.79998
2023-05-18T06:53:52.781Z,213.39999
2023-05-18T06:55:00.440Z,397.39999
2023-05-18T06:56:10.164Z,287.70001
2023-05-18T06:57:19.849Z,252.39999
2023-05-18T06:58:27.546Z,390.89999
2023-05-18T06:59:37.220Z,150.39999
2023-05-18T07:00:44.883Z,19.700001
2023-05-18T07:01:53.592Z,190.19999
2023-05-18T07:03:03.255Z,268.6
2023-05-18T07:04:11.952Z,124.8
2023-05-18T07:05:21.499Z,50.900002
2023-05-18T07:06:30.161Z,8.6
2023-05-18T07:07:39.907Z,61.700001
2023-05-18T07:08:49.627Z,96
2023-05-18T07:09:58.393Z,18.700001
2023-05-18T07:11:08.038Z,3.4
2023-05-18T07:12:17.699Z,3.4
2023-05-18T07:13:27.375Z,1
2023-05-18T07:14:37.359Z,0.6
2023-05-18T07:15:46.075Z,0.7
2023-05-18T07:16:53.775Z,0.9
2023-05-18T07:18:03.826Z,0.8
2023-05-18T07:19:12.413Z,1
2023-05-18T07:20:23.632Z,101.69999
2023-05-18T07:21:32.706Z,129.89999
2023-05-18T07:22:41.382Z,53.599998
2023-05-18T07:23:51.108Z,115.8
2023-05-18T07:24:59.722Z,40.099998
2023-05-18T07:26:07.356Z,26.799999
2023-05-18T07:27:17.051Z,6.9
2023-05-18T07:28:25.830Z,902.40002
2023-05-18T07:29:34.443Z,4.9
2023-05-18T07:30:44.082Z,100.3
2023-05-18T07:31:52.809Z,1.1
2023-05-18T07:33:02.453Z,1.1
2023-05-18T07:34:13.058Z,0.9
2023-05-18T07:35:21.717Z,2.1
2023-05-18T07:36:31.387Z,1
2023-05-18T07:37:39.161Z,3
2023-05-18T07:38:48.801Z,329.29998
2023-05-18T07:39:58.530Z,378.5
2023-05-18T07:41:07.188Z,7.9
2023-05-18T07:42:15.859Z,3.1
2023-05-18T07:43:24.504Z,266.1
2023-05-18T07:44:34.172Z,6.8
2023-05-18T07:45:43.852Z,0.7
2023-05-18T07:46:52.557Z,0.5
2023-05-18T07:48:01.288Z,0.5
2023-05-18T07:49:10.876Z,0.5
2023-05-18T07:50:18.521Z,0.6
2023-05-18T07:51:28.212Z,0.7
2023-05-18T07:52:36.904Z,0.6
2023-05-18T07:53:44.552Z,0.8
2023-05-18T07:54:54.204Z,80.599998
2023-05-18T07:56:01.946Z,219.89999
2023-05-18T07:57:11.574Z,0.5
2023-05-18T07:58:21.246Z,433
2023-05-18T07:59:30.892Z,999.90002
2023-05-18T08:00:40.576Z,676.90002
2023-05-18T08:01:50.276Z,406.5
2023-05-18T08:03:00.100Z,285.79998
2023-05-18T08:04:09.627Z,362.89999
2023-05-18T08:05:18.252Z,207.19999
2023-05-18T08:06:26.882Z,444.1
2023-05-18T08:07:36.543Z,25
2023-05-18T08:08:44.191Z,25.200001
2023-05-18T08:09:52.860Z,8.6
2023-05-18T08:11:02.515Z,0.5
2023-05-18T08:12:11.298Z,199.8
2023-05-18T08:13:20.816Z,532.40002
2023-05-18T08:14:29.530Z,49.299999
2023-05-18T08:15:38.165Z,0.5
2023-05-18T08:16:47.898Z,0.6
2023-05-18T08:17:56.556Z,0.3
2023-05-18T08:19:05.227Z,24.6
2023-05-18T08:20:14.882Z,4.8
2023-05-18T08:21:23.556Z,0.6
2023-05-18T08:22:33.184Z,0.6
2023-05-18T08:23:41.843Z,0.4
2023-05-18T08:24:50.502Z,0.4
2023-05-18T08:26:00.166Z,0.7
2023-05-18T08:27:09.811Z,0.4
2023-05-18T08:28:18.545Z,0.8
2023-05-18T08:29:28.185Z,0.5
2023-05-18T08:30:34.816Z,0.6
2023-05-18T08:31:45.354Z,0.6
2023-05-18T08:32:53.170Z,5.8
2023-05-18T08:34:02.806Z,9.6
2023-05-18T08:35:12.467Z,99
2023-05-18T08:36:21.108Z,0.4
2023-05-18T08:37:29.813Z,0.4
2023-05-18T08:38:38.517Z,0.3
2023-05-18T08:39:47.167Z,1.1
2023-05-18T08:40:56.814Z,0.9
2023-05-18T08:42:06.524Z,0.8
2023-05-18T08:43:16.219Z,0.6
2023-05-18T08:44:26.003Z,1.1
2023-05-18T08:45:34.599Z,1.2
2023-05-18T08:46:44.237Z,0.7
2023-05-18T08:47:52.952Z,0.7
2023-05-18T08:49:01.602Z,0.4
2023-05-18T08:50:11.221Z,0.8
2023-05-18T08:51:20.944Z,0.8
2023-05-18T08:52:30.696Z,0.8
2023-05-18T08:53:39.396Z,0.5
2023-05-18T08:54:47.028Z,0.9
2023-05-18T08:55:56.688Z,0.5
2023-05-18T08:57:04.409Z,2.5
2023-05-18T08:58:13.060Z,133.1
2023-05-18T08:59:22.734Z,43.200001
2023-05-18T09:00:31.529Z,7.5
2023-05-18T09:01:41.069Z,11.2
2023-05-18T09:02:49.701Z,0.7
2023-05-18T09:03:58.367Z,4.7
2023-05-18T09:05:08.077Z,0.5
2023-05-18T09:06:17.687Z,19.299999
2023-05-18T09:07:26.355Z,0.8
2023-05-18T09:08:35.999Z,1
2023-05-18T09:09:45.644Z,0.9
2023-05-18T09:10:55.346Z,40.099998
2023-05-18T09:12:03.997Z,15.8
2023-05-18T09:13:12.625Z,12.9
2023-05-18T09:14:22.315Z,46.799999
2023-05-18T09:15:31.236Z,1.4
2023-05-18T09:16:40.817Z,6
2023-05-18T09:17:50.468Z,132.19999
2023-05-18T09:18:58.075Z,16
2023-05-18T09:20:07.761Z,1
2023-05-18T09:21:16.388Z,0.6
2023-05-18T09:22:24.062Z,1.1
2023-05-18T09:23:33.717Z,1.4
2023-05-18T09:24:41.388Z,2.6
2023-05-18T09:25:50.111Z,0.8
2023-05-18T09:26:59.717Z,2.5
2023-05-18T09:28:08.410Z,11
2023-05-18T09:29:17.092Z,133.6
2023-05-18T09:30:26.763Z,1.3
2023-05-18T09:31:36.440Z,1.3
2023-05-18T09:32:46.150Z,1.3
2023-05-18T09:33:54.778Z,0.7
2023-05-18T09:35:03.397Z,0.7
2023-05-18T09:36:13.043Z,1.2
2023-05-18T09:37:21.686Z,0.8
2023-05-18T09:38:31.427Z,0.9
2023-05-18T09:39:40.149Z,0.9
2023-05-18T09:40:47.790Z,0.7
2023-05-18T09:41:57.442Z,0.9
2023-05-18T09:43:06.715Z,0.8
2023-05-18T09:44:15.518Z,1.3
2023-05-18T09:45:24.219Z,1
2023-05-18T09:46:32.872Z,0.7
2023-05-18T09:47:42.525Z,1.1
2023-05-18T09:48:51.285Z,0.9
2023-05-18T09:50:00.935Z,1.3
2023-05-18T09:51:09.601Z,1.2
2023-05-18T09:52:18.252Z,1
2023-05-18T09:53:26.977Z,0.9
2023-05-18T09:54:36.646Z,1.2
2023-05-18T09:55:46.295Z,1
2023-05-18T09:57:09.322Z,1.1
2023-05-18T09:58:05.651Z,19.6
2023-05-18T09:59:14.292Z,1.1
2023-05-18T10:00:25.518Z,82.300003
2023-05-18T10:01:32.664Z,0.8
2023-05-18T10:02:42.391Z,0.8
2023-05-18T10:03:52.053Z,0.5
2023-05-18T10:04:59.710Z,0.7
2023-05-18T10:06:09.334Z,0.8
2023-05-18T10:07:19.150Z,1
2023-05-18T10:08:28.820Z,0.9
2023-05-18T10:09:38.551Z,0.8
2023-05-18T10:10:46.189Z,0.7
2023-05-18T10:11:54.880Z,0.8
2023-05-18T10:13:04.571Z,1.1
2023-05-18T10:14:13.206Z,0.6
2023-05-18T10:15:22.907Z,1
2023-05-18T10:16:31.596Z,0.9
2023-05-18T10:17:40.373Z,258.89999
2023-05-18T10:18:49.925Z,84.800003
2023-05-18T10:19:58.539Z,1.2
2023-05-18T10:21:07.316Z,29.799999
2023-05-18T10:22:17.240Z,0.7
2023-05-18T10:23:24.874Z,6
2023-05-18T10:24:34.550Z,1.3
2023-05-18T10:25:43.229Z,0.7
2023-05-18T10:26:54.185Z,3.2
2023-05-18T10:28:02.538Z,9.9
2023-05-18T10:29:11.207Z,0.9
2023-05-18T10:30:20.866Z,0.8
2023-05-18T10:31:30.547Z,18.700001
2023-05-18T10:32:38.179Z,40.700001
2023-05-18T10:33:47.816Z,6.8
2023-05-18T10:34:56.574Z,0.8
2023-05-18T10:36:06.352Z,0.7
2023-05-18T10:37:15.979Z,0.9
2023-05-18T10:38:25.640Z,5.7
2023-05-18T10:39:34.292Z,29
2023-05-18T10:40:44.070Z,59.900002
2023-05-18T10:41:52.882Z,1
2023-05-18T10:43:02.555Z,85.099998
2023-05-18T10:44:12.285Z,0.8
2023-05-18T10:45:22.003Z,31.299999
2023-05-18T10:46:30.755Z,3.1
2023-05-18T10:47:39.663Z,1.6
2023-05-18T10:48:48.991Z,200.5
2023-05-18T10:49:57.698Z,24.4
2023-05-18T10:51:07.393Z,25.9
2023-05-18T10:52:17.048Z,182.5
2023-05-18T10:53:24.708Z,393.70001
2023-05-18T10:54:34.465Z,287.89999
2023-05-18T10:55:43.119Z,183.89999
2023-05-18T10:56:52.746Z,53.200001
2023-05-18T10:58:02.408Z,146.5
2023-05-18T10:59:10.040Z,24.799999
2023-05-18T11:00:18.683Z,0.7
2023-05-18T11:01:28.348Z,0.6
2023-05-18T11:02:36.108Z,755
2023-05-18T11:03:45.657Z,234.19999
2023-05-18T11:04:54.479Z,459.39999
2023-05-18T11:06:04.041Z,233.89999
2023-05-18T11:07:13.762Z,17
2023-05-18T11:08:22.461Z,76.099998
2023-05-18T11:09:31.245Z,155.39999
2023-05-18T11:10:40.922Z,116
2023-05-18T11:11:49.578Z,226.39999
2023-05-18T11:12:59.280Z,188.1
2023-05-18T11:14:07.907Z,6.1
2023-05-18T11:15:15.543Z,39.299999
2023-05-18T11:16:25.293Z,1.1
2023-05-18T11:17:35.084Z,0.8
2023-05-18T11:18:44.700Z,2.2
2023-05-18T11:19:54.278Z,26.9
2023-05-18T11:21:02.942Z,23.9
2023-05-18T11:22:12.599Z,1.2
2023-05-18T11:23:22.256Z,0.7
2023-05-18T11:24:31.930Z,2.1
2023-05-18T11:25:41.628Z,0.9
2023-05-18T11:26:51.316Z,0.8
2023-05-18T11:28:00.021Z,0.8
2023-05-18T11:29:09.681Z,0.8
2023-05-18T11:30:18.372Z,0.6
2023-05-18T11:31:28.068Z,0.6
2023-05-18T11:32:37.784Z,0.6
2023-05-18T11:33:47.431Z,0.5
2023-05-18T11:34:57.031Z,0.6
2023-05-18T11:36:04.689Z,0.9
2023-05-18T11:37:13.334Z,0.7
2023-05-18T11:38:22.986Z,0.6
2023-05-18T11:39:30.613Z,0.9
2023-05-18T11:40:40.369Z,5.6
2023-05-18T11:41:49.094Z,4.2
2023-05-18T11:42:58.712Z,9.5
2023-05-18T11:44:08.401Z,1
2023-05-18T11:45:16.077Z,0.8
2023-05-18T11:46:24.871Z,0.9
2023-05-18T11:47:34.581Z,7.2
2023-05-18T11:48:42.298Z,0.7
2023-05-18T11:49:51.840Z,0.7
2023-05-18T11:51:00.557Z,0.8
2023-05-18T11:52:09.245Z,1.5
2023-05-18T11:53:19.887Z,0.8
2023-05-18T11:54:28.594Z,1
2023-05-18T11:55:37.373Z,0.9
2023-05-18T11:56:47.045Z,0.6
2023-05-18T11:57:55.756Z,0.7
2023-05-18T11:59:05.341Z,0.6
2023-05-18T12:00:14.081Z,0.6
2023-05-18T12:01:21.746Z,0.7
2023-05-18T12:02:31.421Z,0.4
2023-05-18T12:03:40.213Z,0.3
2023-05-18T12:04:48.816Z,4.3
2023-05-18T12:05:58.436Z,6
2023-05-18T12:07:06.094Z,1
2023-05-18T12:08:15.725Z,0.8
2023-05-18T12:09:24.400Z,1
2023-05-18T12:10:32.315Z,0.7
2023-05-18T12:11:41.734Z,0.8
2023-05-18T12:12:50.374Z,0.8
2023-05-18T12:13:59.080Z,0.7
2023-05-18T12:15:08.744Z,0.5
2023-05-18T12:16:15.395Z,0.9
2023-05-18T12:17:25.057Z,0.3
2023-05-18T12:18:33.695Z,0.9
2023-05-18T12:19:43.356Z,0.7
2023-05-18T12:20:53.021Z,0.5
2023-05-18T12:22:01.877Z,37.099998
2023-05-18T12:23:10.540Z,14.4
2023-05-18T12:24:20.206Z,0.3
2023-05-18T12:25:30.134Z,0.7
2023-05-18T12:26:39.534Z,0.5
2023-05-18T12:27:49.213Z,0.6
2023-05-18T12:28:58.911Z,0.4
2023-05-18T12:30:08.735Z,0.6
2023-05-18T12:31:17.316Z,0.4
2023-05-18T12:32:24.935Z,0.5
2023-05-18T12:33:34.617Z,0.5
2023-05-18T12:34:44.326Z,0.7
2023-05-18T12:35:53.966Z,0.3
2023-05-18T12:37:02.631Z,0.6
2023-05-18T12:38:10.332Z,0.6
2023-05-18T12:39:19.978Z,0.9
2023-05-18T12:40:27.617Z,0.5
2023-05-18T12:41:37.270Z,0.5
2023-05-18T12:42:44.954Z,0.5
2023-05-18T12:43:54.580Z,1
2023-05-18T12:45:06.495Z,0.6
2023-05-18T12:46:12.950Z,0.8
2023-05-18T12:47:22.574Z,0.6
2023-05-18T12:48:31.228Z,0.6
2023-05-18T12:49:39.901Z,0.7
2023-05-18T12:50:49.534Z,0.7
2023-05-18T12:51:57.213Z,0.4
2023-05-18T12:53:05.861Z,1
2023-05-18T12:54:15.509Z,0.3
2023-05-18T12:55:23.201Z,0.7
2023-05-18T12:56:31.881Z,0.7
2023-05-18T12:57:40.521Z,0.7
2023-05-18T12:58:50.195Z,0.4
2023-05-18T12:59:59.850Z,0.5
2023-05-18T13:01:08.536Z,0.4
2023-05-18T13:02:17.160Z,1.2
2023-05-18T13:03:26.886Z,1.2
2023-05-18T13:04:34.478Z,0.9
2023-05-18T13:05:44.151Z,0.7
2023-05-18T13:06:51.816Z,0.7
2023-05-18T13:08:00.461Z,1
2023-05-18T13:09:12.226Z,0.7
2023-05-18T13:10:18.751Z,0.6
2023-05-18T13:11:27.419Z,0.6
2023-05-18T13:12:37.081Z,0.7
2023-05-18T13:13:45.727Z,148.1
2023-05-18T13:14:55.529Z,3.3
2023-05-18T13:16:04.212Z,53.599998
2023-05-18T13:17:12.887Z,190.8
2023-05-18T13:18:22.519Z,1.9
2023-05-18T13:19:31.221Z,122.4
2023-05-18T13:20:40.796Z,129.8
2023-05-18T13:21:50.431Z,246.3
2023-05-18T13:23:00.168Z,1.2
2023-05-18T13:24:09.820Z,0.7
2023-05-18T13:25:19.509Z,92.599998
2023-05-18T13:26:28.161Z,2
2023-05-18T13:27:37.796Z,137.6
2023-05-18T13:28:45.518Z,1
2023-05-18T13:29:55.264Z,1.1
2023-05-18T13:31:05.003Z,28.9
2023-05-18T13:32:13.567Z,373.20001
2023-05-18T13:33:23.268Z,353.5
2023-05-18T13:34:31.990Z,393.70001
2023-05-18T13:35:41.615Z,57.200001
2023-05-18T13:36:51.265Z,302.70001
2023-05-18T13:37:58.915Z,21.299999
2023-05-18T13:39:08.623Z,38.599998
2023-05-18T13:40:18.260Z,234.5
2023-05-18T13:41:25.967Z,145.5
2023-05-18T13:42:35.605Z,135.6
2023-05-18T13:43:45.281Z,3.5
2023-05-18T13:44:53.915Z,69.599998
2023-05-18T13:46:03.565Z,139.69999
2023-05-18T13:47:11.197Z,63.799999
2023-05-18T13:48:19.883Z,89.400002
2023-05-18T13:49:29.507Z,29.5
2023-05-18T13:50:37.391Z,104.8
2023-05-18T13:51:46.841Z,0.9
2023-05-18T13:52:56.522Z,32.200001
2023-05-18T13:54:04.191Z,17.4
2023-05-18T13:55:13.842Z,0.6
2023-05-18T13:56:21.505Z,0.3
2023-05-18T13:57:30.300Z,0.5
2023-05-18T13:58:39.990Z,0.3
2023-05-18T13:59:47.693Z,0.6
2023-05-18T14:00:56.380Z,0.6
2023-05-18T14:02:05.035Z,0.6
2023-05-18T14:03:13.843Z,0.7
2023-05-18T14:04:23.355Z,0.6
2023-05-18T14:05:31.992Z,0.7
2023-05-18T14:06:41.673Z,1.5
2023-05-18T14:07:51.319Z,0.6
2023-05-18T14:08:58.962Z,4
2023-05-18T14:10:08.727Z,28.299999
2023-05-18T14:11:17.392Z,35.599998
2023-05-18T14:12:27.058Z,4.2
2023-05-18T14:13:36.753Z,4.3
2023-05-18T14:14:44.361Z,3.6
2023-05-18T14:15:54.037Z,0.6
2023-05-18T14:17:03.728Z,2
2023-05-18T14:18:12.334Z,0.4
2023-05-18T14:19:22.091Z,0.6
2023-05-18T14:20:31.036Z,0.7
2023-05-18T14:21:39.285Z,0.8
2023-05-18T14:22:48.959Z,0.4
2023-05-18T14:23:58.583Z,0.6
2023-05-18T14:25:07.307Z,0.6
2023-05-18T14:26:17.003Z,0.5
2023-05-18T14:27:25.634Z,0.6
2023-05-18T14:28:35.266Z,0.6
2023-05-18T14:29:44.939Z,0.5
2023-05-18T14:30:53.602Z,0.8
2023-05-18T14:32:03.233Z,0.7
2023-05-18T14:33:10.885Z,0.6
2023-05-18T14:34:19.532Z,1
2023-05-18T14:35:29.188Z,8.2
2023-05-18T14:36:36.860Z,30.799999
2023-05-18T14:37:46.501Z,1
2023-05-18T14:38:54.166Z,0.5
2023-05-18T14:40:02.810Z,0.6
2023-05-18T14:41:11.427Z,0.6
2023-05-18T14:42:20.143Z,0.8
2023-05-18T14:43:29.788Z,0.8
2023-05-18T14:44:39.460Z,0.8
2023-05-18T14:45:56.821Z,0.5
2023-05-18T14:46:58.749Z,0.7
2023-05-18T14:48:07.487Z,0.6
2023-05-18T14:49:17.205Z,1.3
2023-05-18T14:50:25.829Z,92.599998
2023-05-18T14:51:34.524Z,2.5
2023-05-18T14:52:43.176Z,229.5
2023-05-18T14:53:52.872Z,102.3
2023-05-18T14:55:02.573Z,123.5
2023-05-18T14:56:12.226Z,464.79998
2023-05-18T14:57:20.914Z,621
2023-05-18T14:58:30.596Z,434
2023-05-18T14:59:39.262Z,304.1
2023-05-18T15:00:47.909Z,871.09997
2023-05-18T15:01:57.570Z,813.70001
2023-05-18T15:03:07.321Z,739.90002
2023-05-18T15:04:15.967Z,825
2023-05-18T15:05:25.644Z,852.09997
2023-05-18T15:06:34.310Z,0.9
2023-05-18T15:07:43.971Z,100.3
2023-05-18T15:08:53.683Z,176
2023-05-18T15:10:02.402Z,127
2023-05-18T15:11:12.047Z,65.5
2023-05-18T15:12:20.710Z,3.7
2023-05-18T15:13:30.374Z,22.6
2023-05-18T15:14:40.062Z,0.6
2023-05-18T15:15:48.708Z,0.7
2023-05-18T15:16:58.347Z,1.1
2023-05-18T15:18:07.064Z,0.5
2023-05-18T15:19:15.694Z,0.9
2023-05-18T15:20:25.412Z,82.5
2023-05-18T15:21:33.064Z,20.1
2023-05-18T15:22:41.973Z,7.5
2023-05-18T15:23:51.689Z,1.8
2023-05-18T15:25:00.334Z,1.3
2023-05-18T15:26:09.975Z,0.9
2023-05-18T15:27:18.668Z,1.2
2023-05-18T15:28:27.293Z,3.5
2023-05-18T15:29:36.991Z,175
2023-05-18T15:30:44.649Z,142.69999
2023-05-18T15:31:53.349Z,361.79998
2023-05-18T15:33:02.977Z,310.89999